Time;durP1;ratioP1;P1;durP2;ratioP2;P2;SDS_P1;SDS_P2;PMS_P1;PMS_P2;Temp;Humidity;BMP_temperature;BMP_pressure;BME280_temperature;BME280_humidity;BME280_pressure;Samples;Min_cycle;Max_cycle;Signal;HPM_P1;HPM_P2
2023/09/17 00:01:53;;;;;;;7.28;6.03;;;;;;;22.57;64.96;100207.44;4840665;29;20440;-44
2023/09/17 00:04:19;;;;;;;9.02;5.88;;;;;;;22.55;65.08;100219.66;4840538;29;20038;-46
2023/09/17 00:06:44;;;;;;;7.43;5.55;;;;;;;22.61;65.09;100227.50;4840347;29;20026;-41
2023/09/17 00:09:10;;;;;;;6.60;5.70;;;;;;;22.72;64.87;100224.81;4839775;29;20025;-43
2023/09/17 00:11:35;;;;;;;8.05;5.78;;;;;;;22.58;65.20;100225.34;4839245;29;20022;-44
2023/09/17 00:14:01;;;;;;;6.68;5.63;;;;;;;22.66;65.23;100215.84;4840106;29;20037;-43
2023/09/17 00:16:31;;;;;;;9.05;6.05;;;;;;;22.74;65.10;100215.28;4839506;29;20030;-46
2023/09/17 00:18:57;;;;;;;9.07;6.00;;;;;;;22.60;65.82;100212.31;4840218;29;20048;-46
2023/09/17 00:21:23;;;;;;;10.40;6.53;;;;;;;22.52;66.32;100209.34;4839906;29;20037;-44
2023/09/17 00:23:48;;;;;;;9.05;6.28;;;;;;;22.42;66.71;100208.25;4839737;29;20030;-41
2023/09/17 00:26:14;;;;;;;9.40;6.10;;;;;;;22.46;66.88;100213.94;4839656;29;20089;-45
2023/09/17 00:28:39;;;;;;;8.93;6.32;;;;;;;22.42;66.84;100204.72;4839803;29;20029;-44
2023/09/17 00:31:04;;;;;;;7.38;5.95;;;;;;;22.52;66.59;100206.63;4839822;29;20026;-43
2023/09/17 00:33:30;;;;;;;9.30;6.32;;;;;;;22.56;66.39;100202.28;4839238;29;20030;-45
2023/09/17 00:35:55;;;;;;;8.57;6.10;;;;;;;22.52;66.80;100217.47;4839668;29;20101;-42
2023/09/17 00:38:21;;;;;;;9.15;6.10;;;;;;;22.63;66.57;100202.81;4839376;29;20113;-43
2023/09/17 00:40:46;;;;;;;8.63;6.25;;;;;;;22.65;66.21;100198.75;4844147;29;20110;-47
2023/09/17 00:43:13;;;;;;;7.32;6.00;;;;;;;22.76;66.13;100201.47;4858098;29;20458;-47
2023/09/17 00:45:41;;;;;;;9.25;6.78;;;;;;;22.82;65.71;100205.78;4858433;29;20052;-43
2023/09/17 00:48:07;;;;;;;8.20;6.00;;;;;;;22.76;65.84;100201.47;4858305;29;20040;-43
2023/09/17 00:50:33;;;;;;;9.18;6.22;;;;;;;22.81;65.43;100191.41;4858937;29;20030;-47
2023/09/17 00:53:00;;;;;;;8.02;6.28;;;;;;;22.68;66.47;100202.03;4858978;29;20036;-44
2023/09/17 00:55:28;;;;;;;8.23;6.38;;;;;;;22.62;66.57;100193.06;4858726;29;20040;-44
2023/09/17 00:57:53;;;;;;;8.73;6.45;;;;;;;22.59;67.05;100189.00;4859134;29;20044;-44
2023/09/17 01:00:21;;;;;;;8.38;6.88;;;;;;;22.55;67.02;100190.63;4858590;29;20473;-45
2023/09/17 01:02:47;;;;;;;10.05;6.80;;;;;;;22.57;67.28;100190.34;4859196;29;20036;-43
2023/09/17 01:05:13;;;;;;;10.02;6.53;;;;;;;22.50;67.56;100193.34;4858733;29;20554;-43
2023/09/17 01:07:38;;;;;;;10.38;6.85;;;;;;;22.59;67.40;100194.41;4858829;29;20066;-44
2023/09/17 01:10:05;;;;;;;8.77;6.90;;;;;;;22.64;67.17;100201.75;4859008;29;20025;-42
2023/09/17 01:12:32;;;;;;;9.63;7.05;;;;;;;22.70;66.55;100202.56;4858962;29;20109;-43
2023/09/17 01:14:57;;;;;;;9.45;6.95;;;;;;;22.62;67.14;100204.72;4858712;29;20022;-42
2023/09/17 01:17:27;;;;;;;8.88;6.93;;;;;;;22.63;67.10;100198.19;4858937;29;20021;-41
2023/09/17 01:19:56;;;;;;;9.00;6.90;;;;;;;22.67;66.85;100193.06;4858640;29;20058;-47
2023/09/17 01:22:26;;;;;;;8.32;6.88;;;;;;;22.68;67.37;100197.41;4858481;29;20026;-45
2023/09/17 01:25:06;;;;;;;9.55;6.97;;;;;;;22.78;66.73;100191.94;4858706;29;20033;-42
2023/09/17 01:27:41;;;;;;;9.73;7.07;;;;;;;22.72;66.89;100194.97;4858598;29;20033;-43
2023/09/17 01:30:15;;;;;;;10.95;6.70;;;;;;;22.41;67.92;100189.56;4858597;29;20085;-43
2023/09/17 01:32:45;;;;;;;10.98;6.90;;;;;;;22.19;68.95;100195.19;4858444;29;20026;-46
2023/09/17 01:35:14;;;;;;;9.63;6.88;;;;;;;21.84;70.59;100189.47;4858491;29;20025;-44
2023/09/17 01:37:47;;;;;;;9.85;7.78;;;;;;;22.11;70.01;100187.63;4858225;29;20043;-43
2023/09/17 01:40:12;;;;;;;10.85;7.60;;;;;;;21.88;70.85;100188.94;4858555;29;20056;-44
2023/09/17 01:42:45;;;;;;;9.57;7.28;;;;;;;21.63;71.91;100185.88;4858196;29;20057;-44
2023/09/17 01:45:15;;;;;;;12.05;8.52;;;;;;;21.67;72.00;100186.97;4858151;29;20028;-42
2023/09/17 01:47:43;;;;;;;11.30;8.30;;;;;;;21.62;72.37;100180.72;4861617;29;20025;-43
2023/09/17 01:50:11;;;;;;;11.60;8.43;;;;;;;21.72;72.34;100178.03;4861724;29;20033;-43
2023/09/17 01:52:39;;;;;;;12.55;8.93;;;;;;;21.97;71.12;100184.59;4861789;29;20089;-43
2023/09/17 01:55:08;;;;;;;13.90;9.00;;;;;;;21.81;71.73;100178.34;4861905;29;20025;-47
2023/09/17 01:57:34;;;;;;;12.30;8.35;;;;;;;21.39;73.47;100180.06;4861938;29;20037;-45
2023/09/17 01:59:59;;;;;;;12.95;8.50;;;;;;;21.78;72.81;100176.16;4861680;29;20061;-44
2023/09/17 02:02:25;;;;;;;13.18;9.48;;;;;;;21.93;71.79;100178.88;4861469;29;20081;-44
2023/09/17 02:04:50;;;;;;;17.67;11.63;;;;;;;21.99;71.53;100180.56;4861494;29;20022;-44
2023/09/17 02:07:16;;;;;;;14.05;10.43;;;;;;;22.00;71.73;100181.34;4861588;29;20034;-44
2023/09/17 02:09:42;;;;;;;16.27;11.13;;;;;;;22.18;70.93;100180.00;4861573;29;20652;-43
2023/09/17 02:12:08;;;;;;;15.45;10.70;;;;;;;22.38;69.96;100182.75;4861582;29;20041;-43
2023/09/17 02:14:33;;;;;;;14.90;10.32;;;;;;;22.28;70.37;100185.50;4861550;29;20060;-43
2023/09/17 02:16:58;;;;;;;16.83;9.68;;;;;;;22.18;70.63;100183.56;4861677;29;20033;-46
2023/09/17 02:19:25;;;;;;;13.40;9.30;;;;;;;22.12;71.19;100175.69;4861519;29;20486;-46
2023/09/17 02:21:53;;;;;;;14.25;9.35;;;;;;;21.96;71.92;100182.97;4861278;29;20029;-44
2023/09/17 02:24:22;;;;;;;13.33;9.47;;;;;;;21.95;71.72;100179.47;4861560;29;20025;-44
2023/09/17 02:26:47;;;;;;;12.13;9.30;;;;;;;22.00;71.85;100184.88;4861228;29;20277;-44
2023/09/17 02:29:13;;;;;;;11.32;9.13;;;;;;;22.22;70.74;100173.78;4859575;29;20395;-45
2023/09/17 02:31:39;;;;;;;11.05;8.68;;;;;;;22.20;70.85;100183.25;4842960;29;20104;-44
2023/09/17 02:34:04;;;;;;;12.23;8.80;;;;;;;22.19;70.63;100181.66;4842813;29;20463;-43
2023/09/17 02:36:30;;;;;;;12.63;9.07;;;;;;;22.35;70.20;100190.63;4842490;29;20082;-46
2023/09/17 02:38:56;;;;;;;12.40;8.68;;;;;;;22.41;70.10;100190.38;4842758;29;20411;-45
2023/09/17 02:41:22;;;;;;;13.55;8.60;;;;;;;22.48;70.10;100184.66;4842776;29;20025;-45
2023/09/17 02:43:48;;;;;;;12.02;8.40;;;;;;;22.49;69.79;100186.28;4842350;29;20637;-46
2023/09/17 02:46:13;;;;;;;13.18;8.73;;;;;;;22.54;69.40;100186.31;4842249;29;20779;-47
2023/09/17 02:48:39;;;;;;;11.73;8.40;;;;;;;22.62;69.03;100177.59;4842157;29;20056;-44
2023/09/17 02:51:04;;;;;;;11.73;8.85;;;;;;;22.57;69.18;100183.03;4842269;29;20026;-45
2023/09/17 02:53:29;;;;;;;12.15;7.88;;;;;;;22.68;68.88;100183.84;4842144;29;20026;-44
2023/09/17 02:55:56;;;;;;;12.18;8.70;;;;;;;22.61;69.04;100181.41;4841996;29;20018;-43
2023/09/17 02:58:23;;;;;;;11.65;8.25;;;;;;;22.67;68.73;100178.69;4841930;29;20032;-47
2023/09/17 03:00:48;;;;;;;11.68;8.93;;;;;;;22.82;68.11;100175.94;4842491;29;20054;-46
2023/09/17 03:03:15;;;;;;;11.63;8.95;;;;;;;22.77;68.11;100173.22;4842545;29;20101;-44
2023/09/17 03:05:43;;;;;;;13.23;9.23;;;;;;;22.84;67.61;100176.47;4842052;29;20038;-45
2023/09/17 03:08:09;;;;;;;13.07;9.30;;;;;;;22.80;67.71;100176.22;4842290;29;20030;-45
2023/09/17 03:10:41;;;;;;;13.20;9.23;;;;;;;22.80;67.22;100176.22;4842227;29;20089;-46
2023/09/17 03:13:08;;;;;;;11.80;8.80;;;;;;;22.54;67.39;100174.63;4840645;29;20036;-42
2023/09/17 03:15:34;;;;;;;13.05;9.27;;;;;;;22.15;68.17;100167.03;4842588;29;20028;-44
2023/09/17 03:17:59;;;;;;;12.25;8.70;;;;;;;22.29;67.96;100167.31;4841794;29;20026;-46
2023/09/17 03:20:27;;;;;;;12.02;8.88;;;;;;;22.47;66.73;100165.97;4842197;29;20029;-43
2023/09/17 03:22:53;;;;;;;11.95;9.52;;;;;;;22.16;67.69;100169.47;4841956;29;20099;-44
2023/09/17 03:25:19;;;;;;;11.93;8.90;;;;;;;22.14;67.11;100171.63;4841495;29;20436;-46
2023/09/17 03:27:45;;;;;;;12.00;9.00;;;;;;;22.18;66.03;100167.28;4841740;29;20090;-44
2023/09/17 03:30:12;;;;;;;12.10;8.90;;;;;;;22.06;66.80;100169.44;4841771;29;20037;-44
2023/09/17 03:32:38;;;;;;;12.13;8.38;;;;;;;22.03;67.31;100170.00;4842024;29;20109;-45
2023/09/17 03:35:05;;;;;;;11.43;8.73;;;;;;;22.08;66.47;100175.41;4841936;29;20463;-45
2023/09/17 03:37:30;;;;;;;12.65;8.35;;;;;;;22.14;65.82;100168.91;4841826;29;20522;-44
2023/09/17 03:40:12;;;;;;;10.93;8.27;;;;;;;22.35;64.73;100163.50;4841004;29;20116;-42
2023/09/17 03:42:39;;;;;;;15.10;8.63;;;;;;;22.20;64.68;100161.56;4841343;29;20399;-45
2023/09/17 03:45:06;;;;;;;13.07;8.57;;;;;;;22.12;65.19;100165.63;4841519;29;20052;-45
2023/09/17 03:47:32;;;;;;;11.70;8.60;;;;;;;22.10;65.41;100167.81;4841595;29;20029;-45
2023/09/17 03:49:58;;;;;;;11.85;8.75;;;;;;;22.13;65.28;100171.91;4850238;29;20584;-43
2023/09/17 03:52:26;;;;;;;12.00;8.40;;;;;;;22.22;65.02;100173.78;4859886;29;20041;-45
2023/09/17 03:54:52;;;;;;;13.57;8.43;;;;;;;22.19;65.08;100171.63;4859857;29;20044;-44
2023/09/17 03:57:18;;;;;;;12.52;8.95;;;;;;;22.20;65.07;100172.41;4859617;29;20096;-46
2023/09/17 03:59:43;;;;;;;16.08;8.88;;;;;;;22.24;64.89;100173.53;4859843;29;20403;-45
2023/09/17 04:02:09;;;;;;;11.63;8.65;;;;;;;22.25;65.00;100172.47;4859647;29;20048;-41
2023/09/17 04:04:34;;;;;;;11.32;8.75;;;;;;;22.22;65.06;100179.22;4859687;29;20343;-42
2023/09/17 04:07:00;;;;;;;14.10;8.90;;;;;;;22.29;64.84;100180.88;4859583;29;20037;-42
2023/09/17 04:09:25;;;;;;;11.15;8.82;;;;;;;22.37;64.51;100183.03;4858963;29;20033;-43
2023/09/17 04:11:50;;;;;;;11.93;8.65;;;;;;;22.31;64.85;100184.13;4859648;29;20037;-41
2023/09/17 04:14:16;;;;;;;12.80;8.70;;;;;;;22.34;64.86;100180.88;4859780;29;20038;-43
2023/09/17 04:16:41;;;;;;;12.80;8.60;;;;;;;22.38;64.69;100181.97;4859617;29;20025;-42
2023/09/17 04:19:07;;;;;;;13.88;9.32;;;;;;;22.39;64.85;100183.56;4859615;29;20056;-44
2023/09/17 04:21:32;;;;;;;11.43;8.73;;;;;;;22.34;64.78;100180.88;4859807;29;20025;-44
2023/09/17 04:23:58;;;;;;;11.82;9.00;;;;;;;22.38;64.73;100182.75;4859338;29;20021;-43
2023/09/17 04:26:24;;;;;;;10.52;8.77;;;;;;;22.28;64.96;100188.19;4859473;29;20423;-42
2023/09/17 04:28:49;;;;;;;11.45;8.88;;;;;;;22.30;65.20;100190.66;4859633;29;20120;-43
2023/09/17 04:31:15;;;;;;;15.20;9.55;;;;;;;22.39;64.71;100181.69;4859409;29;20081;-42
2023/09/17 04:33:40;;;;;;;14.73;9.85;;;;;;;22.43;64.55;100184.69;4859262;29;20486;-41
2023/09/17 04:36:06;;;;;;;17.38;12.75;;;;;;;22.44;64.48;100184.38;4859041;29;20462;-44
2023/09/17 04:38:31;;;;;;;14.13;10.32;;;;;;;22.46;64.90;100186.81;4859435;29;20033;-41
2023/09/17 04:40:56;;;;;;;14.23;9.77;;;;;;;22.47;65.00;100190.38;4859526;29;20501;-44
2023/09/17 04:43:23;;;;;;;14.25;9.77;;;;;;;22.47;64.71;100191.19;4858914;29;20483;-43
2023/09/17 04:45:48;;;;;;;12.52;8.88;;;;;;;22.54;64.78;100194.44;4859073;29;20048;-46
2023/09/17 04:48:16;;;;;;;12.90;9.05;;;;;;;22.56;64.71;100197.69;4858881;29;20025;-43
2023/09/17 04:50:43;;;;;;;13.23;9.48;;;;;;;22.53;64.55;100198.22;4858555;29;20415;-41
2023/09/17 04:53:10;;;;;;;14.75;9.68;;;;;;;22.56;64.62;100192.28;4856626;29;20509;-47
2023/09/17 04:55:36;;;;;;;14.00;9.73;;;;;;;22.62;64.35;100201.22;4859039;29;20033;-44
2023/09/17 04:58:02;;;;;;;14.57;9.95;;;;;;;22.59;64.27;100197.13;4859494;29;20271;-42
2023/09/17 05:00:27;;;;;;;13.68;9.05;;;;;;;22.69;64.31;100201.72;4859145;29;20137;-40
2023/09/17 05:02:52;;;;;;;11.55;8.73;;;;;;;22.72;64.72;100205.81;4859174;29;20026;-45
2023/09/17 05:05:19;;;;;;;11.27;8.00;;;;;;;22.96;64.38;100214.16;4858788;29;20030;-42
2023/09/17 05:07:46;;;;;;;13.23;9.10;;;;;;;23.11;63.69;100213.34;4858872;29;20458;-43
2023/09/17 05:10:12;;;;;;;13.30;9.18;;;;;;;23.29;63.28;100218.19;4858751;29;20422;-44
2023/09/17 05:12:38;;;;;;;12.98;9.23;;;;;;;23.50;62.33;100218.94;4858799;29;20563;-45
2023/09/17 05:15:04;;;;;;;15.07;9.73;;;;;;;23.76;61.64;100216.09;4859044;29;20109;-47
2023/09/17 05:17:29;;;;;;;14.63;9.40;;;;;;;23.89;61.49;100220.13;4859119;29;20021;-44
2023/09/17 05:19:55;;;;;;;14.60;9.23;;;;;;;24.06;61.24;100223.28;4857906;29;20534;-43
2023/09/17 05:22:20;;;;;;;15.63;9.88;;;;;;;24.31;60.50;100216.03;4853386;29;20359;-43
2023/09/17 05:24:46;;;;;;;14.43;10.10;;;;;;;24.48;59.58;100210.19;4850045;29;20099;-43
2023/09/17 05:27:11;;;;;;;16.98;10.43;;;;;;;24.75;58.65;100217.88;4852876;29;20461;-43
2023/09/17 05:29:37;;;;;;;16.38;9.88;;;;;;;25.09;57.50;100217.00;4855794;29;20127;-41
2023/09/17 05:32:02;;;;;;;15.50;9.73;;;;;;;25.32;56.39;100224.41;4862443;29;20156;-43
2023/09/17 05:34:28;;;;;;;14.18;10.07;;;;;;;25.41;56.44;100224.56;4860702;29;20029;-43
2023/09/17 05:36:53;;;;;;;13.60;9.48;;;;;;;25.43;56.12;100227.00;4850225;29;20026;-41
2023/09/17 05:39:18;;;;;;;13.80;10.02;;;;;;;25.30;56.13;100221.16;4850250;29;20089;-41
2023/09/17 05:41:44;;;;;;;12.07;9.35;;;;;;;25.42;55.80;100225.34;4850157;29;20419;-45
2023/09/17 05:44:09;;;;;;;13.68;9.38;;;;;;;25.38;55.59;100216.16;4862266;29;20037;-41
2023/09/17 05:46:34;;;;;;;17.92;12.10;;;;;;;25.39;55.47;100223.25;4861778;29;20025;-43
2023/09/17 05:49:00;;;;;;;61.08;35.30;;;;;;;25.41;55.69;100223.75;4861853;29;20026;-44
2023/09/17 05:51:25;;;;;;;16.35;11.50;;;;;;;25.63;55.13;100228.66;4859732;29;20033;-41
2023/09/17 05:53:51;;;;;;;15.35;10.10;;;;;;;25.81;54.65;100232.50;4853815;29;20097;-46
2023/09/17 05:56:17;;;;;;;12.70;8.73;;;;;;;25.49;55.60;100239.44;4861867;29;20102;-43
2023/09/17 05:58:43;;;;;;;13.93;8.65;;;;;;;25.79;54.08;100234.72;4862046;29;20025;-43
2023/09/17 06:01:08;;;;;;;14.43;8.65;;;;;;;25.73;54.50;100229.31;4861519;29;20053;-43
2023/09/17 06:03:33;;;;;;;11.35;8.68;;;;;;;25.96;53.54;100229.59;4861610;29;20397;-43
2023/09/17 06:05:59;;;;;;;15.88;9.55;;;;;;;26.34;52.34;100224.91;4861444;29;20424;-45
2023/09/17 06:08:28;;;;;;;14.20;9.02;;;;;;;26.83;51.16;100225.50;4861613;29;20097;-44
2023/09/17 06:10:54;;;;;;;11.82;8.70;;;;;;;27.23;51.23;100231.31;4861265;29;20052;-45
2023/09/17 06:13:20;;;;;;;12.85;9.52;;;;;;;27.55;49.44;100228.78;4861586;29;20037;-42
2023/09/17 06:15:45;;;;;;;13.10;9.15;;;;;;;27.82;48.56;100228.75;4861412;29;20032;-44
2023/09/17 06:18:11;;;;;;;13.77;8.77;;;;;;;28.08;47.85;100237.22;4861130;29;20418;-44
2023/09/17 06:20:37;;;;;;;15.68;9.93;;;;;;;27.79;48.24;100236.75;4861321;29;20029;-45
2023/09/17 06:23:03;;;;;;;13.15;9.15;;;;;;;27.69;48.61;100233.13;4861318;29;20041;-44
2023/09/17 06:25:28;;;;;;;13.70;10.15;;;;;;;27.75;48.52;100235.75;4861433;29;20029;-47
2023/09/17 06:27:54;;;;;;;13.90;9.02;;;;;;;27.86;48.66;100239.91;4861253;29;20554;-46
2023/09/17 06:30:20;;;;;;;14.70;10.07;;;;;;;28.35;47.37;100254.66;4861009;29;20082;-45
2023/09/17 06:32:45;;;;;;;12.23;8.15;;;;;;;28.15;47.94;100242.25;4860467;29;20032;-46
2023/09/17 06:35:11;;;;;;;14.98;9.48;;;;;;;27.98;48.58;100253.06;4861098;29;20021;-45
2023/09/17 06:37:36;;;;;;;14.10;9.00;;;;;;;28.13;48.50;100252.69;4860272;29;20029;-43
2023/09/17 06:40:03;;;;;;;15.23;9.48;;;;;;;28.04;48.31;100257.28;4860319;29;20077;-43
2023/09/17 06:42:29;;;;;;;13.50;8.88;;;;;;;27.82;48.83;100247.09;4860201;29;20029;-42
2023/09/17 06:44:54;;;;;;;17.58;10.60;;;;;;;27.52;49.96;100248.53;4859862;29;20120;-43
2023/09/17 06:47:20;;;;;;;13.75;9.48;;;;;;;27.96;49.08;100252.56;4860382;29;20488;-43
2023/09/17 06:49:45;;;;;;;13.25;8.75;;;;;;;28.80;47.50;100243.69;4860215;29;20057;-41
2023/09/17 06:52:11;;;;;;;15.23;9.85;;;;;;;29.12;46.61;100238.22;4860250;29;20029;-43
2023/09/17 06:54:36;;;;;;;16.38;9.55;;;;;;;29.51;45.23;100242.09;4860208;29;20025;-43
2023/09/17 06:57:02;;;;;;;14.70;8.65;;;;;;;29.17;45.71;100241.66;4860254;29;20116;-46
2023/09/17 06:59:27;;;;;;;14.23;10.57;;;;;;;29.50;45.78;100237.75;4859807;29;20399;-42
2023/09/17 07:01:53;;;;;;;16.80;10.73;;;;;;;29.75;45.51;100237.00;4860102;29;20109;-44
2023/09/17 07:04:19;;;;;;;12.40;9.75;;;;;;;29.89;44.68;100233.31;4860165;29;20036;-47
2023/09/17 07:06:44;;;;;;;14.95;10.38;;;;;;;29.88;44.64;100232.50;4849988;29;20042;-42
2023/09/17 07:09:10;;;;;;;15.27;10.73;;;;;;;29.90;44.38;100221.22;4841805;29;20046;-46
2023/09/17 07:11:36;;;;;;;12.35;9.80;;;;;;;29.12;46.39;100224.53;4841651;29;20045;-42
2023/09/17 07:14:09;;;;;;;13.80;10.50;;;;;;;29.20;46.07;100224.56;4841636;29;20034;-45
2023/09/17 07:16:36;;;;;;;16.80;11.38;;;;;;;28.95;47.10;100233.47;4840907;29;20037;-45
2023/09/17 07:19:01;;;;;;;20.48;11.10;;;;;;;28.96;46.52;100241.38;4841292;29;20037;-42
2023/09/17 07:21:27;;;;;;;26.17;18.58;;;;;;;29.13;47.03;100234.38;4841274;29;20033;-45
2023/09/17 07:23:52;;;;;;;16.00;10.43;;;;;;;29.08;46.57;100234.50;4841007;29;20030;-44
2023/09/17 07:26:20;;;;;;;15.50;10.43;;;;;;;29.07;47.58;100247.38;4840936;29;20026;-44
2023/09/17 07:28:46;;;;;;;13.45;10.85;;;;;;;29.11;46.42;100233.84;4840718;29;20030;-43
2023/09/17 07:31:12;;;;;;;15.60;11.75;;;;;;;29.26;46.15;100241.69;4847901;29;20045;-42
2023/09/17 07:33:39;;;;;;;16.10;11.25;;;;;;;29.32;45.95;100231.38;4840828;29;20029;-42
2023/09/17 07:36:05;;;;;;;13.73;9.40;;;;;;;29.02;46.33;100250.28;4840894;29;20581;-43
2023/09/17 07:38:32;;;;;;;12.30;8.35;;;;;;;28.31;48.47;100245.47;4840971;29;20566;-45
2023/09/17 07:40:57;;;;;;;12.95;9.00;;;;;;;28.67;47.66;100252.81;4841278;29;20534;-44
2023/09/17 07:43:22;;;;;;;10.88;8.48;;;;;;;28.52;47.47;100245.81;4840094;29;20065;-43
2023/09/17 07:45:48;;;;;;;12.38;8.30;;;;;;;28.42;47.81;100243.28;4854850;29;20125;-43
2023/09/17 07:48:13;;;;;;;11.23;7.75;;;;;;;28.58;47.64;100249.22;4841000;29;20109;-41
2023/09/17 07:50:40;;;;;;;9.40;7.45;;;;;;;28.15;48.97;100252.41;4840954;29;20042;-44
2023/09/17 07:53:06;;;;;;;10.80;7.75;;;;;;;27.99;48.95;100260.97;4840814;29;20033;-43
2023/09/17 07:55:31;;;;;;;12.18;7.53;;;;;;;28.01;48.66;100257.91;4841265;29;20037;-45
2023/09/17 07:57:57;;;;;;;10.20;7.60;;;;;;;27.88;48.88;100256.78;4843097;29;20045;-46
2023/09/17 08:00:22;;;;;;;14.30;8.02;;;;;;;28.14;48.50;100253.50;4840395;29;20053;-41
2023/09/17 08:02:48;;;;;;;13.07;8.27;;;;;;;28.55;47.62;100249.84;4856696;29;20037;-43
2023/09/17 08:05:14;;;;;;;9.75;8.07;;;;;;;28.11;47.91;100252.22;4859028;29;20029;-44
2023/09/17 08:07:40;;;;;;;12.20;7.85;;;;;;;29.07;46.16;100252.06;4856841;29;20045;-43
2023/09/17 08:10:06;;;;;;;11.55;8.65;;;;;;;28.96;46.41;100235.91;4840225;29;20037;-43
2023/09/17 08:12:32;;;;;;;10.48;8.10;;;;;;;28.81;46.82;100244.53;4840146;29;20034;-44
2023/09/17 08:14:58;;;;;;;12.90;9.05;;;;;;;28.42;45.55;100237.78;4839859;29;20033;-43
2023/09/17 08:17:24;;;;;;;16.88;9.70;;;;;;;28.75;44.98;100243.84;4840494;29;20025;-44
2023/09/17 08:19:49;;;;;;;12.55;9.80;;;;;;;29.20;44.17;100221.84;4839862;29;20022;-46
2023/09/17 08:22:15;;;;;;;13.68;10.55;;;;;;;29.31;44.58;100238.81;4839925;29;20026;-42
2023/09/17 08:24:41;;;;;;;10.75;8.85;;;;;;;29.09;44.62;100225.16;4840192;29;20037;-42
2023/09/17 08:27:06;;;;;;;14.95;8.73;;;;;;;29.38;43.99;100224.66;4840251;29;20026;-43
2023/09/17 08:29:33;;;;;;;15.55;9.15;;;;;;;28.60;45.96;100223.16;4840218;29;20038;-44
2023/09/17 08:31:59;;;;;;;12.35;9.00;;;;;;;29.13;45.29;100216.03;4840233;29;20030;-43
2023/09/17 08:34:25;;;;;;;12.32;9.13;;;;;;;29.79;43.62;100223.47;4840112;29;20029;-44
2023/09/17 08:36:50;;;;;;;25.95;18.38;;;;;;;29.94;42.87;100216.69;4840305;29;20365;-43
2023/09/17 08:39:16;;;;;;;17.83;9.60;;;;;;;30.57;41.04;100219.91;4840154;29;20220;-44
2023/09/17 08:41:42;;;;;;;8.80;7.70;;;;;;;29.61;42.06;100222.59;4840150;29;20391;-45
2023/09/17 08:44:08;;;;;;;13.18;8.63;;;;;;;29.26;43.44;100208.78;4839961;29;20454;-45
2023/09/17 08:46:36;;;;;;;12.68;8.90;;;;;;;29.44;43.19;100209.66;4840049;29;20030;-45
2023/09/17 08:49:02;;;;;;;12.60;8.65;;;;;;;29.99;42.88;100211.06;4840306;29;20046;-42
2023/09/17 08:51:37;;;;;;;9.73;7.60;;;;;;;30.02;41.19;100208.47;4840326;29;20196;-43
2023/09/17 08:54:13;;;;;;;10.70;7.07;;;;;;;28.80;42.28;100210.03;4840013;29;20109;-42
2023/09/17 08:56:42;;;;;;;10.75;7.30;;;;;;;29.63;40.85;100198.41;4839145;29;20518;-45
2023/09/17 08:59:29;;;;;;;9.10;7.07;;;;;;;29.86;40.62;100212.03;4848490;29;20061;-44
2023/09/17 09:01:56;;;;;;;11.02;7.35;;;;;;;29.93;40.45;100201.34;4857055;29;20093;-44
2023/09/17 09:04:23;;;;;;;9.95;7.75;;;;;;;30.64;39.95;100197.44;4857161;29;20491;-45
2023/09/17 09:06:50;;;;;;;11.40;7.28;;;;;;;30.46;38.67;100200.22;4856938;29;20037;-45
2023/09/17 09:09:16;;;;;;;10.73;7.60;;;;;;;30.34;39.12;100203.63;4857937;29;20033;-43
2023/09/17 09:11:42;;;;;;;42.42;35.72;;;;;;;31.04;39.14;100206.19;4871735;29;20451;-43
2023/09/17 09:14:08;;;;;;;22.15;17.25;;;;;;;31.69;38.18;100193.06;4857486;29;20029;-43
2023/09/17 09:16:34;;;;;;;14.75;10.13;;;;;;;32.11;36.94;100198.56;4857825;29;20033;-42
2023/09/17 09:19:00;;;;;;;11.57;7.47;;;;;;;32.66;36.40;100193.03;4857986;29;20026;-42
2023/09/17 09:21:28;;;;;;;9.93;7.07;;;;;;;33.11;35.13;100194.97;4858083;29;20041;-43
2023/09/17 09:23:57;;;;;;;9.10;7.03;;;;;;;33.00;34.67;100186.31;4858061;29;20169;-46
2023/09/17 09:26:32;;;;;;;10.82;7.38;;;;;;;32.12;36.31;100191.13;4858031;29;20522;-44
2023/09/17 09:28:58;;;;;;;10.48;7.53;;;;;;;32.18;36.61;100189.78;4857755;29;20071;-44
2023/09/17 09:31:24;;;;;;;34.08;25.77;;;;;;;32.08;36.57;100191.00;4857955;29;20121;-45
2023/09/17 09:33:50;;;;;;;12.05;7.95;;;;;;;31.23;37.90;100183.81;4857860;29;20463;-45
2023/09/17 09:36:16;;;;;;;11.13;7.75;;;;;;;30.79;38.16;100183.16;4858215;29;20085;-42
2023/09/17 09:38:42;;;;;;;9.45;7.25;;;;;;;29.99;39.99;100178.13;4857931;29;20041;-42
2023/09/17 09:41:07;;;;;;;13.88;7.35;;;;;;;30.25;39.47;100180.84;4858213;29;20081;-45
2023/09/17 09:43:33;;;;;;;9.43;7.22;;;;;;;29.87;41.00;100181.50;4857655;29;20030;-45
2023/09/17 09:46:06;;;;;;;10.55;7.97;;;;;;;30.22;40.10;100170.53;4857787;29;20033;-43
2023/09/17 09:48:36;;;;;;;13.55;9.38;;;;;;;30.63;39.88;100173.84;4857892;29;20040;-44
2023/09/17 09:51:01;;;;;;;9.68;7.78;;;;;;;30.75;38.87;100172.03;4857923;29;20125;-45
2023/09/17 09:53:26;;;;;;;10.10;6.75;;;;;;;31.43;37.99;100173.16;4857154;29;20025;-42
2023/09/17 09:55:52;;;;;;;11.77;7.47;;;;;;;30.62;38.12;100167.56;4857310;29;20025;-44
2023/09/17 09:58:18;;;;;;;11.35;7.50;;;;;;;30.24;39.34;100164.72;4857001;29;20037;-45
2023/09/17 10:00:45;;;;;;;12.80;6.82;;;;;;;30.68;38.80;100160.75;4856623;29;20515;-44
2023/09/17 10:03:14;;;;;;;10.02;7.50;;;;;;;30.74;38.59;100162.16;4857022;29;20136;-42
2023/09/17 10:05:40;;;;;;;12.15;6.70;;;;;;;31.10;37.71;100158.16;4856653;29;20112;-41
2023/09/17 10:08:10;;;;;;;11.38;7.20;;;;;;;31.54;36.90;100155.97;4859586;29;20192;-44
2023/09/17 10:10:44;;;;;;;11.10;7.22;;;;;;;31.90;36.07;100157.28;4860937;29;20067;-41
2023/09/17 10:13:12;;;;;;;11.25;7.30;;;;;;;32.53;36.19;100153.63;4860379;29;20115;-44
2023/09/17 10:15:41;;;;;;;11.13;7.13;;;;;;;31.96;35.04;100144.94;4860523;29;20588;-42
2023/09/17 10:18:10;;;;;;;;;;;;;;;32.01;35.70;100154.16;4861064;29;20025;-42
2023/09/17 10:20:38;;;;;;;12.10;7.00;;;;;;;32.46;34.45;100145.09;4860406;29;19998;-44
2023/09/17 10:23:05;;;;;;;23.25;15.45;;;;;;;33.22;33.56;100137.38;4860402;29;20266;-42
2023/09/17 10:25:31;;;;;;;20.40;11.10;;;;;;;32.69;32.89;100145.50;4860649;29;20037;-45
2023/09/17 10:27:58;;;;;;;10.77;5.68;;;;;;;30.93;34.87;100137.06;4860095;29;20029;-41
2023/09/17 10:30:24;;;;;;;9.27;6.40;;;;;;;31.01;34.84;100140.91;4854089;29;20113;-42
2023/09/17 10:32:51;;;;;;;10.95;5.95;;;;;;;31.51;34.18;100140.16;4842189;29;20109;-45
2023/09/17 10:35:16;;;;;;;10.20;6.55;;;;;;;31.24;35.33;100135.13;4842321;29;20026;-42
2023/09/17 10:37:43;;;;;;;10.48;6.05;;;;;;;30.67;35.66;100136.34;4842514;29;20030;-47
2023/09/17 10:40:10;;;;;;;9.82;6.30;;;;;;;31.57;35.64;100138.00;4841961;29;20033;-43
2023/09/17 10:42:38;;;;;;;8.02;5.90;;;;;;;32.63;34.53;100136.66;4842289;29;20446;-46
2023/09/17 10:45:07;;;;;;;9.18;6.18;;;;;;;32.93;32.24;100129.00;4842214;29;20482;-44
2023/09/17 10:47:35;;;;;;;10.40;5.82;;;;;;;32.05;32.73;100133.09;4842024;29;20112;-42
2023/09/17 10:50:03;;;;;;;12.02;5.95;;;;;;;30.74;34.74;100125.66;4842122;29;20525;-46
2023/09/17 10:52:32;;;;;;;9.38;5.53;;;;;;;30.51;35.16;100111.38;4841773;29;20034;-43
2023/09/17 10:54:58;;;;;;;10.55;5.20;;;;;;;30.53;34.19;100115.41;4841601;29;20022;-44
2023/09/17 10:57:47;;;;;;;9.18;5.60;;;;;;;30.91;34.14;100117.38;4841652;29;20034;-43
2023/09/17 11:00:18;;;;;;;7.88;5.32;;;;;;;31.68;33.66;100111.72;4841631;29;20065;-43
2023/09/17 11:02:50;;;;;;;10.77;5.47;;;;;;;32.46;33.22;100112.06;4841349;29;20034;-45
2023/09/17 11:05:21;;;;;;;7.65;5.40;;;;;;;32.29;32.06;100102.88;4841008;29;20127;-43
2023/09/17 11:07:47;;;;;;;11.95;6.25;;;;;;;32.92;30.92;100091.56;4841148;29;20026;-42
2023/09/17 11:10:14;;;;;;;30.50;22.60;;;;;;;32.78;31.17;100088.34;4841344;29;20028;-43
2023/09/17 11:12:41;;;;;;;11.80;6.50;;;;;;;32.73;32.15;100086.66;4841296;29;20026;-42
2023/09/17 11:15:08;;;;;;;11.32;6.07;;;;;;;33.28;31.42;100081.66;4840787;29;20034;-44